createdAt,value
2023-03-29T00:01:10.157Z,86.56
2023-03-29T00:03:39.534Z,86.50
2023-03-29T00:06:15.216Z,85.97
2023-03-29T00:08:46.002Z,86.78
2023-03-29T00:11:13.747Z,85.80
2023-03-29T00:13:41.843Z,85.69
2023-03-29T00:23:44.487Z,84.45
2023-03-29T00:26:12.464Z,84.14
2023-03-29T00:28:40.203Z,84.90
2023-03-29T00:31:10.129Z,84.67
2023-03-29T00:33:38.025Z,84.53
2023-03-29T00:36:07.164Z,83.53
2023-03-29T00:38:36.172Z,83.99
2023-03-29T00:41:06.870Z,83.84
2023-03-29T00:43:53.018Z,83.99
2023-03-29T00:46:21.244Z,82.94
2023-03-29T00:48:49.304Z,83.18
2023-03-29T00:51:20.139Z,83.13
2023-03-29T00:53:51.786Z,83.28
2023-03-29T00:56:25.591Z,83.28
2023-03-29T00:58:56.018Z,83.17
2023-03-29T01:01:30.406Z,82.49
2023-03-29T01:04:04.828Z,82.87
2023-03-29T01:06:36.180Z,83.92
2023-03-29T01:09:08.759Z,83.36
2023-03-29T01:11:42.724Z,83.51
2023-03-29T01:14:16.092Z,83.44
2023-03-29T01:16:43.892Z,83.96
2023-03-29T01:19:16.986Z,84.33
2023-03-29T01:21:52.556Z,83.87
2023-03-29T01:24:42.156Z,84.13
2023-03-29T01:27:15.916Z,84.46
2023-03-29T01:29:50.079Z,84.59
2023-03-29T01:32:23.360Z,84.50
2023-03-29T01:34:57.691Z,84.13
2023-03-29T01:37:31.090Z,84.57
2023-03-29T01:39:58.981Z,84.60
2023-03-29T01:42:38.317Z,84.65
2023-03-29T01:45:20.510Z,84.47
2023-03-29T01:47:57.105Z,84.11
2023-03-29T01:50:35.544Z,84.55
2023-03-29T01:53:08.784Z,84.22
2023-03-29T01:55:41.104Z,84.44
2023-03-29T01:58:12.794Z,84.92
2023-03-29T02:00:43.790Z,84.10
2023-03-29T02:03:14.919Z,84.00
2023-03-29T02:05:43.543Z,83.63
2023-03-29T02:08:16.076Z,84.00
2023-03-29T02:10:43.946Z,84.78
2023-03-29T02:13:11.755Z,83.91
2023-03-29T02:15:40.952Z,83.35
2023-03-29T02:18:08.833Z,84.62
2023-03-29T02:20:40.638Z,84.49
2023-03-29T02:23:14.721Z,84.32
2023-03-29T02:25:43.835Z,84.04
2023-03-29T02:28:11.841Z,83.19
2023-03-29T02:30:48.206Z,84.37
2023-03-29T02:33:21.790Z,83.65
2023-03-29T02:35:54.531Z,84.03
2023-03-29T02:38:25.579Z,83.51
2023-03-29T02:40:53.964Z,83.88
2023-03-29T02:43:25.925Z,83.43
2023-03-29T02:45:56.073Z,84.05
2023-03-29T02:48:28.109Z,83.67
2023-03-29T02:51:01.227Z,83.61
2023-03-29T02:53:33.885Z,84.32
2023-03-29T02:56:04.132Z,84.13
2023-03-29T02:58:32.222Z,84.49
2023-03-29T03:01:03.146Z,84.98
2023-03-29T03:03:31.799Z,83.88
2023-03-29T03:06:01.579Z,84.68
2023-03-29T03:08:29.895Z,84.27
2023-03-29T03:10:58.217Z,84.65
2023-03-29T03:13:26.146Z,84.81
2023-03-29T03:15:54.199Z,85.08
2023-03-29T03:18:23.420Z,85.11
2023-03-29T03:20:58.179Z,84.81
2023-03-29T03:23:26.759Z,85.50
2023-03-29T03:25:55.249Z,84.99
2023-03-29T03:28:24.260Z,84.55
2023-03-29T03:30:52.412Z,84.94
2023-03-29T03:33:20.158Z,85.05
2023-03-29T03:35:49.260Z,85.50
2023-03-29T03:38:17.153Z,85.02
2023-03-29T03:40:44.940Z,85.98
2023-03-29T03:43:12.719Z,85.68
2023-03-29T03:45:40.517Z,85.16
2023-03-29T03:48:08.674Z,85.69
2023-03-29T03:50:36.464Z,85.07
2023-03-29T03:53:05.603Z,85.41
2023-03-29T03:55:33.607Z,85.51
2023-03-29T03:58:01.515Z,85.93
2023-03-29T04:00:29.766Z,85.95
2023-03-29T04:02:57.580Z,85.15
2023-03-29T04:05:25.635Z,85.92
2023-03-29T04:07:54.232Z,86.20
2023-03-29T04:10:23.372Z,85.94
2023-03-29T04:12:51.098Z,86.58
2023-03-29T04:15:20.300Z,86.40
2023-03-29T04:17:48.156Z,86.46
2023-03-29T04:20:16.625Z,86.13
2023-03-29T04:22:44.375Z,86.81
2023-03-29T04:25:12.220Z,85.89
2023-03-29T04:27:41.621Z,86.38
2023-03-29T04:30:10.608Z,86.82
2023-03-29T04:32:40.981Z,86.76
2023-03-29T04:35:10.623Z,86.71
2023-03-29T04:37:40.355Z,86.71
2023-03-29T04:40:10.009Z,86.54
2023-03-29T04:42:38.341Z,86.71
2023-03-29T04:45:08.228Z,86.74
2023-03-29T04:47:36.554Z,86.96
2023-03-29T04:50:04.624Z,87.63
2023-03-29T04:52:33.402Z,87.52
2023-03-29T04:55:01.462Z,86.69
2023-03-29T04:57:30.226Z,87.23
2023-03-29T04:59:58.289Z,87.74
2023-03-29T05:02:27.525Z,87.71
2023-03-29T05:04:55.287Z,86.72
2023-03-29T05:07:23.040Z,87.01
2023-03-29T05:09:50.745Z,87.93
2023-03-29T05:12:18.499Z,87.22
2023-03-29T05:14:46.253Z,87.53
2023-03-29T05:17:14.328Z,87.27
2023-03-29T05:19:44.407Z,87.92
2023-03-29T05:22:12.234Z,87.32
2023-03-29T05:24:39.996Z,88.01
2023-03-29T05:27:07.750Z,88.21
2023-03-29T05:29:35.530Z,87.42
2023-03-29T05:32:03.348Z,87.61
2023-03-29T05:34:31.453Z,87.93
2023-03-29T05:37:01.483Z,88.83
2023-03-29T05:39:29.305Z,88.99
2023-03-29T05:41:57.056Z,89.47
2023-03-29T05:44:27.264Z,89.55
2023-03-29T05:46:55.429Z,89.64
2023-03-29T05:49:23.128Z,89.44
2023-03-29T05:51:52.041Z,90.69
2023-03-29T05:54:21.595Z,91.08
2023-03-29T05:56:49.379Z,90.99
2023-03-29T05:59:17.681Z,92.13
2023-03-29T06:01:46.919Z,91.50
2023-03-29T06:04:15.392Z,92.39
2023-03-29T06:06:43.551Z,92.51
2023-03-29T06:09:11.527Z,92.00
2023-03-29T06:11:40.762Z,92.91
2023-03-29T06:14:09.939Z,93.28
2023-03-29T06:16:38.044Z,93.27
2023-03-29T06:19:08.582Z,93.31
2023-03-29T06:21:38.554Z,93.69
2023-03-29T06:24:06.808Z,92.85
2023-03-29T06:26:35.203Z,93.04
2023-03-29T06:29:04.517Z,93.63
2023-03-29T06:31:34.640Z,93.59
2023-03-29T06:34:05.174Z,94.06
2023-03-29T06:36:36.231Z,93.49
2023-03-29T06:39:08.619Z,93.74
2023-03-29T06:41:36.767Z,93.60
2023-03-29T06:44:06.716Z,93.77
2023-03-29T06:46:41.381Z,93.68
2023-03-29T06:49:09.127Z,93.53
2023-03-29T06:51:40.638Z,94.07
2023-03-29T06:54:08.665Z,94.15
2023-03-29T06:56:39.656Z,93.94
2023-03-29T06:59:09.335Z,94.10
2023-03-29T07:01:40.069Z,93.68
2023-03-29T07:04:09.369Z,93.49
2023-03-29T07:06:39.068Z,93.55
2023-03-29T07:09:07.805Z,93.47
2023-03-29T07:11:39.237Z,93.48
2023-03-29T07:14:08.382Z,93.05
2023-03-29T07:16:37.507Z,93.19
2023-03-29T07:19:05.979Z,93.04
2023-03-29T07:21:35.936Z,92.97
2023-03-29T07:24:06.698Z,93.04
2023-03-29T07:26:34.599Z,93.26
2023-03-29T07:29:02.330Z,92.91
2023-03-29T07:31:32.945Z,93.61
2023-03-29T07:34:00.719Z,93.20
2023-03-29T07:36:28.760Z,93.33
2023-03-29T07:38:57.215Z,93.01
2023-03-29T07:41:29.705Z,93.32
2023-03-29T07:43:57.750Z,93.34
2023-03-29T07:46:26.220Z,93.33
2023-03-29T07:48:56.741Z,93.22
2023-03-29T07:51:24.687Z,93.02
2023-03-29T07:53:52.448Z,92.67
2023-03-29T07:56:20.665Z,93.20
2023-03-29T07:58:48.406Z,93.08
2023-03-29T08:01:18.859Z,93.08
2023-03-29T08:03:47.428Z,92.86
2023-03-29T08:06:17.283Z,93.10
2023-03-29T08:08:45.342Z,93.15
2023-03-29T08:11:14.075Z,93.36
2023-03-29T08:13:42.019Z,93.35
2023-03-29T08:16:10.458Z,93.77
2023-03-29T08:18:38.396Z,93.65
2023-03-29T08:21:06.491Z,93.47
2023-03-29T08:23:37.080Z,93.40
2023-03-29T08:26:05.050Z,93.34
2023-03-29T08:28:33.651Z,93.39
2023-03-29T08:31:02.039Z,93.62
2023-03-29T08:33:30.024Z,93.47
2023-03-29T08:35:57.863Z,93.39
2023-03-29T08:38:27.401Z,93.39
2023-03-29T08:40:56.723Z,93.38
2023-03-29T08:43:59.238Z,93.49
2023-03-29T08:46:37.315Z,93.12
2023-03-29T08:49:09.034Z,92.72
2023-03-29T08:51:42.503Z,92.49
2023-03-29T08:54:15.974Z,92.45
2023-03-29T08:56:47.468Z,92.51
2023-03-29T08:59:21.596Z,91.88
2023-03-29T09:01:53.135Z,92.02
2023-03-29T09:04:26.997Z,91.65
2023-03-29T09:06:55.235Z,91.75
2023-03-29T09:09:29.969Z,91.56
2023-03-29T09:12:11.952Z,91.02
2023-03-29T09:14:54.315Z,90.94
2023-03-29T09:17:35.698Z,90.99
2023-03-29T09:20:19.208Z,91.31
2023-03-29T09:22:57.734Z,91.23
2023-03-29T09:25:44.026Z,91.49
2023-03-29T09:28:29.540Z,91.09
2023-03-29T09:31:02.673Z,90.80
2023-03-29T09:33:42.767Z,90.49
2023-03-29T09:36:17.282Z,91.15
2023-03-29T09:38:49.719Z,90.98
2023-03-29T09:41:23.659Z,90.75
2023-03-29T09:43:53.249Z,90.07
2023-03-29T09:46:23.780Z,90.39
2023-03-29T09:48:52.672Z,90.66
2023-03-29T09:51:24.251Z,90.79
2023-03-29T09:53:52.085Z,91.49
2023-03-29T09:56:20.067Z,91.57
2023-03-29T09:58:48.155Z,92.67
2023-03-29T10:01:18.875Z,93.62
2023-03-29T10:03:49.689Z,93.86
2023-03-29T10:06:20.638Z,94.48
2023-03-29T10:08:52.454Z,94.73
2023-03-29T10:11:24.237Z,95.14
2023-03-29T10:13:57.228Z,95.35
2023-03-29T10:16:31.171Z,94.90
2023-03-29T10:18:59.013Z,95.11
2023-03-29T10:21:30.457Z,95.30
2023-03-29T10:23:59.400Z,95.23
2023-03-29T10:26:31.756Z,95.19
2023-03-29T10:29:01.817Z,94.62
2023-03-29T10:31:33.145Z,94.32
2023-03-29T10:34:05.134Z,93.63
2023-03-29T10:36:35.314Z,93.69
2023-03-29T10:39:06.388Z,93.31
2023-03-29T10:41:36.502Z,93.12
2023-03-29T10:44:05.045Z,93.18
2023-03-29T10:46:44.643Z,92.28
2023-03-29T10:49:19.320Z,92.54
2023-03-29T10:51:49.315Z,92.67
2023-03-29T10:54:21.007Z,93.01
2023-03-29T10:56:53.457Z,92.13
2023-03-29T10:59:29.405Z,92.18
2023-03-29T11:02:19.676Z,91.85
2023-03-29T11:04:52.472Z,91.62
2023-03-29T11:07:29.256Z,91.64
2023-03-29T11:10:07.914Z,92.09
2023-03-29T11:12:41.873Z,91.96
2023-03-29T11:15:23.535Z,92.00
2023-03-29T11:18:05.089Z,91.56
2023-03-29T11:20:43.067Z,91.29
2023-03-29T11:23:28.702Z,90.33
2023-03-29T11:26:09.892Z,90.03
2023-03-29T11:28:45.661Z,89.66
2023-03-29T11:31:22.807Z,89.67
2023-03-29T11:34:04.796Z,89.60
2023-03-29T11:36:41.548Z,89.48
2023-03-29T11:39:21.975Z,89.16
2023-03-29T11:41:53.642Z,89.33
2023-03-29T11:44:25.126Z,89.58
2023-03-29T11:46:58.583Z,89.78
2023-03-29T11:49:33.413Z,89.19
2023-03-29T11:52:07.942Z,88.93
2023-03-29T11:54:41.391Z,88.80
2023-03-29T11:57:16.746Z,88.76
2023-03-29T11:59:52.771Z,88.46
2023-03-29T12:02:31.006Z,88.27
2023-03-29T12:05:05.018Z,87.75
2023-03-29T12:07:42.845Z,87.28
2023-03-29T12:10:19.567Z,87.69
2023-03-29T12:12:52.559Z,87.69
2023-03-29T12:15:24.912Z,88.27
2023-03-29T12:17:59.206Z,88.54
2023-03-29T12:20:32.125Z,88.48
2023-03-29T12:23:00.702Z,88.17
2023-03-29T12:25:32.987Z,88.03
2023-03-29T12:28:15.059Z,86.58
2023-03-29T12:30:51.801Z,86.54
2023-03-29T12:33:37.221Z,86.13
2023-03-29T12:36:19.991Z,86.38
2023-03-29T12:38:49.141Z,86.19
2023-03-29T12:41:20.134Z,85.34
2023-03-29T12:43:48.910Z,84.67
2023-03-29T12:46:19.372Z,84.79
2023-03-29T12:48:50.452Z,84.40
2023-03-29T12:51:22.877Z,84.61
2023-03-29T12:53:53.538Z,83.97
2023-03-29T12:56:23.933Z,84.02
2023-03-29T12:58:56.924Z,82.87
2023-03-29T13:01:30.450Z,82.67
2023-03-29T13:04:14.806Z,82.67
2023-03-29T13:07:05.714Z,82.38
2023-03-29T13:09:36.750Z,82.37
2023-03-29T13:12:14.584Z,81.72
2023-03-29T13:14:45.238Z,81.49
2023-03-29T13:17:23.730Z,81.01
2023-03-29T13:20:04.396Z,80.91
2023-03-29T13:22:43.143Z,81.04
2023-03-29T13:25:25.476Z,80.95
2023-03-29T13:28:04.605Z,80.51
2023-03-29T13:30:46.786Z,80.00
2023-03-29T13:33:29.052Z,80.52
2023-03-29T13:36:05.476Z,79.89
2023-03-29T13:38:46.483Z,79.64
2023-03-29T13:41:28.804Z,79.61
2023-03-29T13:43:58.738Z,79.54
2023-03-29T13:46:38.256Z,79.37
2023-03-29T13:49:15.489Z,79.41
2023-03-29T13:51:48.937Z,78.91
2023-03-29T13:54:26.267Z,78.63
2023-03-29T13:57:03.206Z,78.57
2023-03-29T13:59:49.159Z,78.16
2023-03-29T14:02:24.122Z,78.11
2023-03-29T14:04:53.740Z,77.29
2023-03-29T14:07:26.190Z,77.41
2023-03-29T14:09:58.163Z,77.07
2023-03-29T14:12:31.196Z,77.36
2023-03-29T14:15:03.566Z,77.45
2023-03-29T14:17:32.434Z,76.21
2023-03-29T14:20:04.788Z,76.28
2023-03-29T14:22:35.004Z,76.69
2023-03-29T14:25:12.929Z,77.11
2023-03-29T14:27:42.608Z,77.38
2023-03-29T14:30:22.818Z,77.11
2023-03-29T14:32:52.426Z,76.09
2023-03-29T14:35:21.396Z,75.70
2023-03-29T14:37:49.743Z,74.97
2023-03-29T14:40:21.759Z,75.21
2023-03-29T14:42:51.003Z,74.70
2023-03-29T14:45:23.286Z,75.14
2023-03-29T14:47:52.855Z,74.59
2023-03-29T14:50:30.208Z,74.55
2023-03-29T14:53:00.040Z,74.57
2023-03-29T14:55:31.041Z,74.57
2023-03-29T14:58:00.186Z,74.28
2023-03-29T15:00:31.550Z,73.46
2023-03-29T15:03:01.483Z,73.20
2023-03-29T15:05:39.679Z,72.08
2023-03-29T15:08:10.464Z,72.50
2023-03-29T15:10:42.967Z,72.84
2023-03-29T15:13:17.603Z,73.19
2023-03-29T15:15:45.945Z,72.77
2023-03-29T15:18:17.130Z,72.41
2023-03-29T15:20:45.732Z,72.96
2023-03-29T15:23:25.911Z,72.97
2023-03-29T15:25:58.589Z,73.40
2023-03-29T15:28:32.440Z,73.36
2023-03-29T15:31:07.760Z,73.34
2023-03-29T15:33:38.054Z,73.41
2023-03-29T15:36:07.853Z,73.57
2023-03-29T15:38:43.952Z,73.87
2023-03-29T15:41:15.374Z,74.30
2023-03-29T15:43:44.069Z,74.50
2023-03-29T15:46:13.892Z,74.84
2023-03-29T15:48:42.163Z,75.07
2023-03-29T15:51:11.568Z,75.39
2023-03-29T15:53:39.396Z,75.80
2023-03-29T15:56:10.170Z,76.19
2023-03-29T15:58:39.377Z,76.47
2023-03-29T16:01:15.849Z,76.82
2023-03-29T16:03:47.100Z,77.15
2023-03-29T16:06:16.077Z,77.45
2023-03-29T16:08:43.837Z,77.90
2023-03-29T16:11:11.577Z,77.99
2023-03-29T16:13:40.800Z,78.14
2023-03-29T16:16:11.365Z,78.25
2023-03-29T16:18:39.295Z,78.40
2023-03-29T16:21:08.853Z,78.20
2023-03-29T16:23:38.294Z,78.42
2023-03-29T16:26:06.495Z,78.30
2023-03-29T16:28:34.373Z,78.28
2023-03-29T16:31:03.527Z,78.57
2023-03-29T16:33:31.301Z,78.62
2023-03-29T16:35:59.101Z,78.76
2023-03-29T16:38:29.211Z,78.99
2023-03-29T16:40:57.121Z,78.93
2023-03-29T16:43:24.861Z,78.97
2023-03-29T16:45:52.627Z,79.11
2023-03-29T16:48:21.890Z,79.13
2023-03-29T16:50:49.881Z,79.48
2023-03-29T16:53:18.284Z,79.46
2023-03-29T16:55:46.413Z,79.47
2023-03-29T16:58:15.423Z,79.92
2023-03-29T17:00:46.409Z,79.86
2023-03-29T17:03:16.334Z,80.26
2023-03-29T17:05:50.233Z,80.40
2023-03-29T17:08:17.851Z,80.62
2023-03-29T17:10:45.650Z,80.42
2023-03-29T17:13:13.716Z,80.48
2023-03-29T17:15:41.587Z,80.65
2023-03-29T17:18:09.480Z,80.84
2023-03-29T17:20:41.585Z,80.94
2023-03-29T17:23:11.051Z,81.65
2023-03-29T17:25:39.144Z,81.47
2023-03-29T17:28:06.921Z,81.66
2023-03-29T17:30:36.526Z,82.08
2023-03-29T17:33:05.904Z,82.09
2023-03-29T17:35:33.750Z,82.26
2023-03-29T17:38:02.954Z,82.28
2023-03-29T17:40:32.060Z,82.72
2023-03-29T17:42:59.917Z,82.98
2023-03-29T17:45:28.204Z,82.94
2023-03-29T17:47:56.059Z,83.29
2023-03-29T17:50:23.924Z,83.46
2023-03-29T17:52:51.791Z,83.66
2023-03-29T17:55:21.083Z,83.59
2023-03-29T17:57:50.412Z,84.18
2023-03-29T18:00:19.446Z,83.79
2023-03-29T18:02:47.262Z,84.21
2023-03-29T18:05:15.187Z,84.45
2023-03-29T18:07:42.962Z,84.55
2023-03-29T18:10:11.662Z,84.57
2023-03-29T18:12:39.458Z,85.09
2023-03-29T18:15:09.960Z,85.09
2023-03-29T18:17:37.848Z,85.56
2023-03-29T18:20:11.852Z,85.74
2023-03-29T18:22:39.945Z,85.84
2023-03-29T18:25:09.489Z,86.13
2023-03-29T18:27:37.796Z,86.64
2023-03-29T18:30:08.557Z,86.59
2023-03-29T18:32:38.033Z,86.59
2023-03-29T18:35:06.860Z,86.60
2023-03-29T18:37:34.893Z,86.59
2023-03-29T18:40:06.193Z,87.09
2023-03-29T18:42:34.038Z,87.13
2023-03-29T18:45:01.808Z,87.06
2023-03-29T18:47:29.610Z,87.54
2023-03-29T18:49:58.964Z,87.69
2023-03-29T18:52:27.488Z,87.90
2023-03-29T18:55:07.366Z,87.99
2023-03-29T18:57:35.257Z,88.24
2023-03-29T19:00:10.552Z,88.46
2023-03-29T19:02:38.691Z,88.56
2023-03-29T19:05:07.297Z,89.27
2023-03-29T19:07:35.473Z,89.29
2023-03-29T19:10:08.145Z,89.68
2023-03-29T19:12:36.348Z,89.99
2023-03-29T19:15:04.302Z,90.28
2023-03-29T19:17:32.211Z,90.05
2023-03-29T19:20:00.033Z,90.54
2023-03-29T19:22:28.004Z,90.70
2023-03-29T19:24:55.826Z,90.69
2023-03-29T19:27:25.025Z,91.09
2023-03-29T19:29:52.756Z,91.08
2023-03-29T19:32:20.711Z,91.33
2023-03-29T19:34:48.685Z,91.87
2023-03-29T19:37:17.618Z,92.28
2023-03-29T19:39:45.949Z,91.97
2023-03-29T19:42:13.843Z,92.80
2023-03-29T19:44:42.981Z,92.99
2023-03-29T19:47:10.725Z,93.25
2023-03-29T19:49:38.867Z,93.50
2023-03-29T19:52:06.852Z,93.70
2023-03-29T19:54:34.671Z,93.81
2023-03-29T19:57:02.752Z,93.55
2023-03-29T19:59:31.497Z,94.17
2023-03-29T20:02:02.388Z,93.90
2023-03-29T20:04:33.325Z,93.71
2023-03-29T20:07:01.242Z,93.74
2023-03-29T20:09:29.038Z,94.17
2023-03-29T20:11:56.833Z,94.07
2023-03-29T20:14:24.621Z,94.25
2023-03-29T20:16:54.137Z,94.71
2023-03-29T20:19:25.238Z,94.41
2023-03-29T20:21:55.083Z,94.97
2023-03-29T20:24:23.127Z,95.06
2023-03-29T20:26:51.003Z,94.77
2023-03-29T20:29:19.003Z,95.55
2023-03-29T20:31:47.464Z,95.47
2023-03-29T20:34:15.288Z,95.62
2023-03-29T20:36:45.308Z,95.53
2023-03-29T20:39:13.408Z,95.52
2023-03-29T20:41:41.208Z,95.63
2023-03-29T20:44:08.974Z,96.06
2023-03-29T20:46:38.039Z,96.23
2023-03-29T20:49:08.912Z,96.40
2023-03-29T20:51:38.616Z,96.26
2023-03-29T20:54:10.041Z,96.87
2023-03-29T20:56:42.248Z,96.59
2023-03-29T20:59:11.546Z,96.77
2023-03-29T21:01:40.550Z,97.21
2023-03-29T21:04:09.357Z,96.86
2023-03-29T21:06:39.470Z,96.78
2023-03-29T21:09:08.728Z,97.01
2023-03-29T21:11:36.520Z,96.93
2023-03-29T21:14:04.299Z,96.73
2023-03-29T21:16:32.057Z,96.90
2023-03-29T21:18:59.770Z,97.37
2023-03-29T21:21:29.533Z,97.00
2023-03-29T21:23:57.473Z,96.75
2023-03-29T21:26:27.093Z,97.13
2023-03-29T21:28:54.865Z,97.29
2023-03-29T21:31:22.657Z,97.02
2023-03-29T21:33:50.488Z,96.81
2023-03-29T21:36:18.316Z,97.06
2023-03-29T21:38:46.584Z,96.88
2023-03-29T21:41:14.582Z,96.76
2023-03-29T21:43:43.820Z,96.87
2023-03-29T21:46:12.419Z,97.42
2023-03-29T21:48:41.738Z,96.76
2023-03-29T21:51:10.119Z,96.96
2023-03-29T21:53:37.921Z,96.82
2023-03-29T21:56:06.609Z,97.47
2023-03-29T21:58:34.382Z,96.89
2023-03-29T22:01:05.210Z,96.84
2023-03-29T22:03:33.135Z,97.12
2023-03-29T22:06:02.688Z,97.16
2023-03-29T22:08:30.792Z,96.58
2023-03-29T22:10:58.757Z,96.38
2023-03-29T22:13:28.726Z,96.02
2023-03-29T22:15:58.659Z,96.31
2023-03-29T22:18:30.350Z,95.62
2023-03-29T22:20:58.322Z,95.34
2023-03-29T22:23:26.024Z,95.43
2023-03-29T22:25:53.922Z,94.81
2023-03-29T22:28:21.680Z,95.14
2023-03-29T22:30:51.327Z,94.45
2023-03-29T22:33:19.071Z,94.70
2023-03-29T22:35:48.205Z,94.19
2023-03-29T22:38:16.023Z,94.38
2023-03-29T22:40:43.803Z,94.29
2023-03-29T22:43:11.593Z,93.84
2023-03-29T22:45:39.393Z,94.31
2023-03-29T22:48:07.513Z,93.73
2023-03-29T22:50:35.366Z,93.79
2023-03-29T22:53:04.509Z,93.52
2023-03-29T22:55:32.278Z,93.32
2023-03-29T22:58:00.123Z,93.19
2023-03-29T23:00:27.910Z,93.26
2023-03-29T23:02:55.884Z,92.90
2023-03-29T23:05:24.080Z,93.14
2023-03-29T23:07:51.820Z,93.04
2023-03-29T23:10:21.038Z,92.56
2023-03-29T23:12:49.621Z,92.29
2023-03-29T23:15:17.986Z,92.45
2023-03-29T23:17:45.812Z,92.27
2023-03-29T23:20:14.001Z,92.44
2023-03-29T23:22:41.734Z,92.19
2023-03-29T23:25:10.128Z,92.20
2023-03-29T23:27:39.302Z,91.21
2023-03-29T23:30:08.810Z,91.63
2023-03-29T23:32:36.564Z,91.34
2023-03-29T23:35:05.102Z,90.65
2023-03-29T23:37:32.950Z,89.84
2023-03-29T23:40:00.722Z,89.35
2023-03-29T23:42:30.838Z,88.39
2023-03-29T23:45:00.165Z,87.04
2023-03-29T23:47:27.947Z,86.09
2023-03-29T23:49:55.782Z,85.27
2023-03-29T23:52:23.498Z,84.88
2023-03-29T23:54:51.317Z,83.99
2023-03-29T23:57:19.443Z,83.64
2023-03-29T23:59:47.175Z,82.76
